createdAt,value
2019-03-21T00:00:12.548Z,4.37
2019-03-21T00:02:42.504Z,3.90
2019-03-21T00:05:10.771Z,4.10
2019-03-21T00:07:38.763Z,3.60
2019-03-21T00:10:22.832Z,3.53
2019-03-21T00:12:50.659Z,5.17
2019-03-21T00:15:25.811Z,3.10
2019-03-21T00:18:00.918Z,2.90
2019-03-21T00:20:28.908Z,3.03
2019-03-21T00:22:56.775Z,3.53
2019-03-21T00:25:24.681Z,3.80
2019-03-21T00:27:52.523Z,3.33
2019-03-21T00:30:21.455Z,4.27
2019-03-21T00:32:49.407Z,4.43
2019-03-21T00:35:17.587Z,5.17
2019-03-21T00:37:45.722Z,5.63
2019-03-21T00:40:16.193Z,12.33
2019-03-21T00:42:44.169Z,8.93
2019-03-21T00:45:14.427Z,6.73
2019-03-21T00:47:42.456Z,5.40
2019-03-21T00:50:12.417Z,5.73
2019-03-21T00:52:40.524Z,5.90
2019-03-21T00:55:09.701Z,5.67
2019-03-21T00:57:37.706Z,5.67
2019-03-21T01:00:07.312Z,5.90
2019-03-21T01:02:35.296Z,6.47
2019-03-21T01:05:03.674Z,6.23
2019-03-21T01:07:32.220Z,6.00
2019-03-21T01:10:00.306Z,5.63
2019-03-21T01:12:28.402Z,4.00
2019-03-21T01:14:56.113Z,3.80
2019-03-21T01:17:24.115Z,3.60
2019-03-21T01:19:51.836Z,3.23
2019-03-21T01:22:19.878Z,3.00
2019-03-21T01:24:47.864Z,3.33
2019-03-21T01:27:15.903Z,2.37
2019-03-21T01:29:43.667Z,3.00
2019-03-21T01:32:11.510Z,3.17
2019-03-21T01:34:39.410Z,2.70
2019-03-21T01:37:07.412Z,3.27
2019-03-21T01:39:35.829Z,2.73
2019-03-21T01:42:03.801Z,2.37
2019-03-21T01:44:40.489Z,3.20
2019-03-21T01:47:03.637Z,2.60
2019-03-21T01:49:31.533Z,3.17
2019-03-21T01:51:59.732Z,3.10
2019-03-21T01:54:27.720Z,3.43
2019-03-21T01:56:55.758Z,4.60
2019-03-21T01:59:23.627Z,5.40
2019-03-21T02:01:51.484Z,8.17
2019-03-21T02:04:19.375Z,6.87
2019-03-21T02:06:47.777Z,6.70
2019-03-21T02:09:15.615Z,6.80
2019-03-21T02:11:43.895Z,7.30
2019-03-21T02:14:11.922Z,7.37
2019-03-21T02:16:39.933Z,6.00
2019-03-21T02:19:07.934Z,4.73
2019-03-21T02:21:35.818Z,4.93
2019-03-21T02:24:05.171Z,4.80
2019-03-21T02:26:33.300Z,5.17
2019-03-21T02:29:01.528Z,4.43
2019-03-21T02:31:29.993Z,4.30
2019-03-21T02:33:57.956Z,3.67
2019-03-21T02:36:26.341Z,4.10
2019-03-21T02:38:55.172Z,3.67
2019-03-21T02:41:25.499Z,3.83
2019-03-21T02:43:53.070Z,3.90
2019-03-21T02:46:20.950Z,3.33
2019-03-21T02:48:48.903Z,3.70
2019-03-21T02:51:17.018Z,3.23
2019-03-21T02:53:44.660Z,3.30
2019-03-21T02:56:14.128Z,3.63
2019-03-21T02:58:41.956Z,3.50
2019-03-21T03:01:11.011Z,3.60
2019-03-21T03:03:39.358Z,2.40
2019-03-21T03:06:07.317Z,3.07
2019-03-21T03:08:35.219Z,2.80
2019-03-21T03:11:03.660Z,2.50
2019-03-21T03:13:31.677Z,2.43
2019-03-21T03:15:59.657Z,2.90
2019-03-21T03:18:27.984Z,3.13
2019-03-21T03:20:55.891Z,2.53
2019-03-21T03:23:23.903Z,2.93
2019-03-21T03:25:51.800Z,3.00
2019-03-21T03:28:21.453Z,2.70
2019-03-21T03:30:49.775Z,4.33
2019-03-21T03:33:17.876Z,4.70
2019-03-21T03:35:47.105Z,3.80
2019-03-21T03:38:15.149Z,4.30
2019-03-21T03:40:45.375Z,3.73
2019-03-21T03:43:13.313Z,5.40
2019-03-21T03:45:41.536Z,6.97
2019-03-21T03:48:09.451Z,6.57
2019-03-21T03:50:37.767Z,6.63
2019-03-21T03:53:05.627Z,5.70
2019-03-21T03:55:33.636Z,5.83
2019-03-21T03:58:03.137Z,5.87
2019-03-21T04:00:31.347Z,6.30
2019-03-21T04:02:59.199Z,5.67
2019-03-21T04:05:27.458Z,5.90
2019-03-21T04:07:55.478Z,5.90
2019-03-21T04:10:28.920Z,5.50
2019-03-21T04:12:56.881Z,6.83
2019-03-21T04:15:25.353Z,5.63
2019-03-21T04:17:53.330Z,5.90
2019-03-21T04:20:23.748Z,4.80
2019-03-21T04:22:51.623Z,4.77
2019-03-21T04:25:22.618Z,4.93
2019-03-21T04:27:50.961Z,4.07
2019-03-21T04:30:18.849Z,4.10
2019-03-21T04:32:46.869Z,4.20
2019-03-21T04:35:14.835Z,4.97
2019-03-21T04:37:42.837Z,4.50
2019-03-21T04:40:11.699Z,4.40
2019-03-21T04:42:39.749Z,4.67
2019-03-21T04:45:13.437Z,4.77
2019-03-21T04:47:42.567Z,5.40
2019-03-21T04:50:13.301Z,5.83
2019-03-21T04:52:41.631Z,6.23
2019-03-21T04:55:10.555Z,7.70
2019-03-21T04:57:38.406Z,9.57
2019-03-21T05:00:10.412Z,8.50
2019-03-21T05:02:38.195Z,7.70
2019-03-21T05:05:07.219Z,6.33
2019-03-21T05:07:35.665Z,5.53
2019-03-21T05:10:04.726Z,5.00
2019-03-21T05:12:32.713Z,5.87
2019-03-21T05:15:00.459Z,4.20
2019-03-21T05:17:28.349Z,4.40
2019-03-21T05:19:56.271Z,4.27
2019-03-21T05:22:24.231Z,5.33
2019-03-21T05:24:53.396Z,5.37
2019-03-21T05:27:21.234Z,5.20
2019-03-21T05:29:49.188Z,5.70
2019-03-21T05:32:17.089Z,5.07
2019-03-21T05:34:45.083Z,5.10
2019-03-21T05:37:13.038Z,4.70
2019-03-21T05:39:41.096Z,4.87
2019-03-21T05:42:13.610Z,6.23
2019-03-21T05:44:42.667Z,5.60
2019-03-21T05:47:10.543Z,5.87
2019-03-21T05:49:38.805Z,5.47
2019-03-21T05:52:08.380Z,6.10
2019-03-21T05:54:36.119Z,6.23
2019-03-21T05:57:04.097Z,5.03
2019-03-21T05:59:31.994Z,6.47
2019-03-21T06:02:00.187Z,5.77
2019-03-21T06:04:28.248Z,6.30
2019-03-21T06:07:46.523Z,5.33
2019-03-21T06:10:15.610Z,5.40
2019-03-21T06:12:43.842Z,6.10
2019-03-21T06:15:12.814Z,5.60
2019-03-21T06:17:40.854Z,5.70
2019-03-21T06:20:50.510Z,6.17
2019-03-21T06:23:35.237Z,5.47
2019-03-21T06:26:19.406Z,5.43
2019-03-21T06:28:47.355Z,5.83
2019-03-21T06:31:15.774Z,5.07
2019-03-21T06:33:44.009Z,4.93
2019-03-21T06:36:12.029Z,5.03
2019-03-21T06:38:40.010Z,4.67
2019-03-21T06:41:07.880Z,5.07
2019-03-21T06:43:35.853Z,5.37
2019-03-21T06:46:03.769Z,5.53
2019-03-21T06:48:31.684Z,5.07
2019-03-21T06:51:00.339Z,5.43
2019-03-21T06:53:28.341Z,5.73
2019-03-21T06:55:56.830Z,6.27
2019-03-21T06:58:24.970Z,5.67
2019-03-21T07:00:52.827Z,5.90
2019-03-21T07:03:21.004Z,6.10
2019-03-21T07:05:49.354Z,5.10
2019-03-21T07:08:17.361Z,6.20
2019-03-21T07:10:45.789Z,6.80
2019-03-21T07:13:14.087Z,5.80
2019-03-21T07:15:42.578Z,6.43
2019-03-21T07:18:11.159Z,6.20
2019-03-21T07:20:41.382Z,6.43
2019-03-21T07:23:09.557Z,5.77
2019-03-21T07:25:39.778Z,6.07
2019-03-21T07:28:08.190Z,5.63
2019-03-21T07:30:36.312Z,5.80
2019-03-21T07:33:04.869Z,5.43
2019-03-21T07:35:33.244Z,5.80
2019-03-21T07:38:01.153Z,6.00
2019-03-21T07:40:28.993Z,4.57
2019-03-21T07:42:57.046Z,4.10
2019-03-21T07:45:24.938Z,3.60
2019-03-21T07:47:53.402Z,4.17
2019-03-21T07:50:21.268Z,3.87
2019-03-21T07:52:49.119Z,3.83
2019-03-21T07:55:17.088Z,4.07
2019-03-21T07:57:45.018Z,3.90
2019-03-21T08:00:13.670Z,3.43
2019-03-21T08:02:41.867Z,3.37
2019-03-21T08:05:10.255Z,3.60
2019-03-21T08:07:38.077Z,3.37
2019-03-21T08:10:06.267Z,3.03
2019-03-21T08:12:34.145Z,3.03
2019-03-21T08:15:02.172Z,3.10
2019-03-21T08:17:30.064Z,3.73
2019-03-21T08:19:57.952Z,2.37
2019-03-21T08:22:25.908Z,3.33
2019-03-21T08:24:53.893Z,3.03
2019-03-21T08:27:21.889Z,3.10
2019-03-21T08:29:49.775Z,3.23
2019-03-21T08:32:19.321Z,3.20
2019-03-21T08:34:47.182Z,3.53
2019-03-21T08:37:15.213Z,2.83
2019-03-21T08:39:43.196Z,2.50
2019-03-21T08:42:11.626Z,3.00
2019-03-21T08:44:40.038Z,3.20
2019-03-21T08:47:09.840Z,3.00
2019-03-21T08:49:37.712Z,3.03
2019-03-21T08:52:07.688Z,3.17
2019-03-21T08:54:35.759Z,3.00
2019-03-21T08:57:04.020Z,3.00
2019-03-21T08:59:32.380Z,2.90
2019-03-21T09:02:00.718Z,2.60
2019-03-21T09:04:28.667Z,2.50
2019-03-21T09:06:56.718Z,3.67
2019-03-21T09:09:24.684Z,3.57
2019-03-21T09:11:52.299Z,3.53
2019-03-21T09:14:20.305Z,3.20
2019-03-21T09:16:48.051Z,3.60
2019-03-21T09:19:16.032Z,3.40
2019-03-21T09:21:43.998Z,3.20
2019-03-21T09:24:11.872Z,4.53
2019-03-21T09:26:40.233Z,3.80
2019-03-21T09:29:08.045Z,3.47
2019-03-21T09:31:35.884Z,3.00
2019-03-21T09:34:03.905Z,3.70
2019-03-21T09:36:32.046Z,3.70
2019-03-21T09:39:00.330Z,3.40
2019-03-21T09:41:28.200Z,3.57
2019-03-21T09:43:56.204Z,3.90
2019-03-21T09:46:25.645Z,4.07
2019-03-21T09:48:53.884Z,3.90
2019-03-21T09:51:30.478Z,3.53
2019-03-21T09:53:52.423Z,3.50
2019-03-21T09:56:20.431Z,3.83
2019-03-21T09:58:48.643Z,4.00
2019-03-21T10:01:16.538Z,3.40
2019-03-21T10:03:44.843Z,3.77
2019-03-21T10:06:12.829Z,4.00
2019-03-21T10:08:40.784Z,4.03
2019-03-21T10:11:08.661Z,4.13
2019-03-21T10:13:36.556Z,4.17
2019-03-21T10:16:04.477Z,3.93
2019-03-21T10:18:32.416Z,4.20
2019-03-21T10:21:00.317Z,4.10
2019-03-21T10:23:28.046Z,4.07
2019-03-21T10:25:56.016Z,4.20
2019-03-21T10:28:23.983Z,3.87
2019-03-21T10:30:51.872Z,3.90
2019-03-21T10:33:19.953Z,5.20
2019-03-21T10:35:47.810Z,4.00
2019-03-21T10:38:15.754Z,4.17
2019-03-21T10:40:43.569Z,4.40
2019-03-21T10:43:11.540Z,4.23
2019-03-21T10:45:39.404Z,4.73
2019-03-21T10:48:07.480Z,4.07
2019-03-21T10:50:37.126Z,4.27
2019-03-21T10:53:06.325Z,4.40
2019-03-21T10:55:34.811Z,4.63
2019-03-21T10:58:03.003Z,4.90
2019-03-21T11:00:32.157Z,4.73
2019-03-21T11:03:00.175Z,4.50
2019-03-21T11:05:29.171Z,4.77
2019-03-21T11:07:57.154Z,4.30
2019-03-21T11:10:25.327Z,4.70
2019-03-21T11:12:53.397Z,4.50
2019-03-21T11:15:21.411Z,4.37
2019-03-21T11:17:49.957Z,4.73
2019-03-21T11:20:29.119Z,5.40
2019-03-21T11:22:56.962Z,5.33
2019-03-21T11:25:24.869Z,4.67
2019-03-21T11:27:52.704Z,4.60
2019-03-21T11:30:28.160Z,4.20
2019-03-21T11:32:56.348Z,4.07
2019-03-21T11:35:24.486Z,4.20
2019-03-21T11:37:52.501Z,4.10
2019-03-21T11:40:20.472Z,3.57
2019-03-21T11:42:48.473Z,4.00
2019-03-21T11:45:16.513Z,3.93
2019-03-21T11:47:44.806Z,4.50
2019-03-21T11:50:13.134Z,3.93
2019-03-21T11:52:41.413Z,3.43
2019-03-21T11:55:10.351Z,3.90
2019-03-21T11:57:39.295Z,4.13
2019-03-21T12:00:07.508Z,4.17
2019-03-21T12:02:35.354Z,3.80
2019-03-21T12:05:03.602Z,3.43
2019-03-21T12:07:31.697Z,3.80
2019-03-21T12:09:59.561Z,3.87
2019-03-21T12:12:27.604Z,4.57
2019-03-21T12:14:55.478Z,4.70
2019-03-21T12:17:23.463Z,4.10
2019-03-21T12:19:51.326Z,4.30
2019-03-21T12:22:29.420Z,4.57
2019-03-21T12:24:49.358Z,3.90
2019-03-21T12:27:17.256Z,4.70
2019-03-21T12:29:45.384Z,4.10
2019-03-21T12:32:13.479Z,4.43
2019-03-21T12:34:41.637Z,4.67
2019-03-21T12:37:09.612Z,4.60
2019-03-21T12:39:37.648Z,3.97
2019-03-21T12:42:05.638Z,5.10
2019-03-21T12:44:33.501Z,4.17
2019-03-21T12:47:01.399Z,4.37
2019-03-21T12:49:29.423Z,4.33
2019-03-21T12:51:57.489Z,4.60
2019-03-21T12:54:25.595Z,4.33
2019-03-21T12:56:53.660Z,4.37
2019-03-21T12:59:22.031Z,4.27
2019-03-21T13:01:50.217Z,3.40
2019-03-21T13:04:18.140Z,3.40
2019-03-21T13:06:46.249Z,3.80
2019-03-21T13:09:14.289Z,3.37
2019-03-21T13:11:42.607Z,3.67
2019-03-21T13:14:10.504Z,2.87
2019-03-21T13:16:38.471Z,3.00
2019-03-21T13:19:06.365Z,3.70
2019-03-21T13:21:34.287Z,3.00
2019-03-21T13:24:02.106Z,3.57
2019-03-21T13:26:30.140Z,3.20
2019-03-21T13:28:58.088Z,2.93
2019-03-21T13:31:25.913Z,2.80
2019-03-21T13:33:53.938Z,3.10
2019-03-21T13:36:21.929Z,3.53
2019-03-21T13:38:49.718Z,3.00
2019-03-21T13:41:17.725Z,3.10
2019-03-21T13:43:45.605Z,3.03
2019-03-21T13:46:13.381Z,3.50
2019-03-21T13:48:41.428Z,3.20
2019-03-21T13:51:09.586Z,3.07
2019-03-21T13:53:37.586Z,3.30
2019-03-21T13:56:05.307Z,3.70
2019-03-21T13:58:33.342Z,2.87
2019-03-21T14:01:01.152Z,3.20
2019-03-21T14:03:29.137Z,2.90
2019-03-21T14:05:57.172Z,2.93
2019-03-21T14:08:25.071Z,3.07
2019-03-21T14:10:53.072Z,4.10
2019-03-21T14:13:21.009Z,4.33
2019-03-21T14:15:49.013Z,3.70
2019-03-21T14:18:17.007Z,3.87
2019-03-21T14:20:45.317Z,3.97
2019-03-21T14:23:17.354Z,3.60
2019-03-21T14:25:43.544Z,4.17
2019-03-21T14:28:12.936Z,4.10
2019-03-21T14:30:40.937Z,3.73
2019-03-21T14:33:08.943Z,4.90
2019-03-21T14:35:36.863Z,4.90
2019-03-21T14:38:04.898Z,4.07
2019-03-21T14:40:32.883Z,4.20
2019-03-21T14:43:00.782Z,4.83
2019-03-21T14:45:28.964Z,4.17
2019-03-21T14:47:56.989Z,3.83
2019-03-21T14:50:25.018Z,4.13
2019-03-21T14:52:52.767Z,4.33
2019-03-21T14:55:21.102Z,4.03
2019-03-21T14:57:49.218Z,4.20
2019-03-21T15:00:17.708Z,3.97
2019-03-21T15:02:46.036Z,3.90
2019-03-21T15:05:14.899Z,3.87
2019-03-21T15:07:43.040Z,3.90
2019-03-21T15:10:11.542Z,3.87
2019-03-21T15:12:39.765Z,3.80
2019-03-21T15:15:08.726Z,3.87
2019-03-21T15:17:36.932Z,3.83
2019-03-21T15:20:07.102Z,3.73
2019-03-21T15:22:35.834Z,3.13
2019-03-21T15:25:04.837Z,3.17
2019-03-21T15:27:33.206Z,3.97
2019-03-21T15:30:01.921Z,3.00
2019-03-21T15:32:30.240Z,3.47
2019-03-21T15:34:58.294Z,3.20
2019-03-21T15:37:26.874Z,3.30
2019-03-21T15:39:55.279Z,2.60
2019-03-21T15:42:23.506Z,2.67
2019-03-21T15:44:52.759Z,4.17
2019-03-21T15:47:20.830Z,3.17
2019-03-21T15:49:48.959Z,3.30
2019-03-21T15:52:17.155Z,2.93
2019-03-21T15:54:45.256Z,2.67
2019-03-21T15:57:13.547Z,2.97
2019-03-21T15:59:41.673Z,2.67
2019-03-21T16:02:10.212Z,3.00
2019-03-21T16:04:38.665Z,3.93
2019-03-21T16:07:07.152Z,3.63
2019-03-21T16:09:35.619Z,3.50
2019-03-21T16:12:03.927Z,3.10
2019-03-21T16:14:32.295Z,2.80
2019-03-21T16:17:00.398Z,3.00
2019-03-21T16:19:28.654Z,3.70
2019-03-21T16:21:57.155Z,3.13
2019-03-21T16:24:25.467Z,3.00
2019-03-21T16:26:53.862Z,2.93
2019-03-21T16:29:22.039Z,2.53
2019-03-21T16:31:50.283Z,2.60
2019-03-21T16:34:19.205Z,2.40
2019-03-21T16:36:47.595Z,2.87
2019-03-21T16:39:15.804Z,2.63
2019-03-21T16:41:44.092Z,2.40
2019-03-21T16:44:12.503Z,3.03
2019-03-21T16:46:40.850Z,3.80
2019-03-21T16:49:09.078Z,3.57
2019-03-21T16:51:37.319Z,2.70
2019-03-21T16:54:16.595Z,2.73
2019-03-21T16:56:35.634Z,2.47
2019-03-21T16:59:03.913Z,2.73
2019-03-21T17:01:31.999Z,2.67
2019-03-21T17:04:00.266Z,3.07
2019-03-21T17:06:28.449Z,2.80
2019-03-21T17:08:57.936Z,3.10
2019-03-21T17:11:26.077Z,2.63
2019-03-21T17:13:54.330Z,2.87
2019-03-21T17:16:22.739Z,2.57
2019-03-21T17:18:51.428Z,3.50
2019-03-21T17:21:19.783Z,3.17
2019-03-21T17:23:48.047Z,3.00
2019-03-21T17:26:16.246Z,3.20
2019-03-21T17:28:44.681Z,2.90
2019-03-21T17:31:12.736Z,2.93
2019-03-21T17:33:42.093Z,3.20
2019-03-21T17:36:10.282Z,2.63
2019-03-21T17:38:38.434Z,3.40
2019-03-21T17:41:07.183Z,2.70
2019-03-21T17:43:35.759Z,2.60
2019-03-21T17:46:04.089Z,2.67
2019-03-21T17:48:33.626Z,2.60
2019-03-21T17:51:02.947Z,2.33
2019-03-21T17:53:33.164Z,3.20
2019-03-21T17:56:01.290Z,2.33
2019-03-21T17:58:29.502Z,2.93
2019-03-21T18:00:57.885Z,3.20
2019-03-21T18:03:26.324Z,2.97
2019-03-21T18:05:55.603Z,4.17
2019-03-21T18:08:23.667Z,4.43
2019-03-21T18:10:51.861Z,5.27
2019-03-21T18:13:19.853Z,4.93
2019-03-21T18:15:47.755Z,4.40
2019-03-21T18:18:15.993Z,4.67
2019-03-21T18:20:43.993Z,5.57
2019-03-21T18:23:12.000Z,5.43
2019-03-21T18:25:40.010Z,5.27
2019-03-21T18:28:08.924Z,4.10
2019-03-21T18:30:37.163Z,4.73
2019-03-21T18:33:05.284Z,5.17
2019-03-21T18:35:33.165Z,5.70
2019-03-21T18:38:01.193Z,4.93
2019-03-21T18:40:29.551Z,5.40
2019-03-21T18:42:57.428Z,5.33
2019-03-21T18:45:25.394Z,5.37
2019-03-21T18:47:53.574Z,4.63
2019-03-21T18:50:21.634Z,4.80
2019-03-21T18:52:50.227Z,5.47
2019-03-21T18:55:18.423Z,4.50
2019-03-21T18:57:46.677Z,5.73
2019-03-21T19:00:15.519Z,5.53
2019-03-21T19:02:43.747Z,5.77
2019-03-21T19:05:11.884Z,5.60
2019-03-21T19:07:39.934Z,5.67
2019-03-21T19:10:10.219Z,6.63
2019-03-21T19:12:38.161Z,5.80
2019-03-21T19:15:07.796Z,5.97
2019-03-21T19:17:36.950Z,7.17
2019-03-21T19:20:06.376Z,7.07
2019-03-21T19:22:34.464Z,7.27
2019-03-21T19:25:02.401Z,8.37
2019-03-21T19:27:31.533Z,7.97
2019-03-21T19:29:59.948Z,7.87
2019-03-21T19:32:27.820Z,7.37
2019-03-21T19:34:55.850Z,6.60
2019-03-21T19:37:24.015Z,6.30
2019-03-21T19:39:51.988Z,6.10
2019-03-21T19:42:21.173Z,7.60
2019-03-21T19:44:49.122Z,9.87
2019-03-21T19:47:24.294Z,8.90
2019-03-21T19:49:46.763Z,8.80
2019-03-21T19:52:14.880Z,7.20
2019-03-21T19:54:42.854Z,6.70
2019-03-21T19:57:10.909Z,6.53
2019-03-21T19:59:40.739Z,7.17
2019-03-21T20:02:08.525Z,7.20
2019-03-21T20:04:36.444Z,6.60
2019-03-21T20:07:04.224Z,5.43
2019-03-21T20:09:32.118Z,5.47
2019-03-21T20:12:00.487Z,5.80
2019-03-21T20:14:29.801Z,5.53
2019-03-21T20:16:57.823Z,6.53
2019-03-21T20:19:26.003Z,7.90
2019-03-21T20:21:54.589Z,10.27
2019-03-21T20:24:23.179Z,10.60
2019-03-21T20:26:51.463Z,9.87
2019-03-21T20:29:19.256Z,9.30
2019-03-21T20:31:47.369Z,7.80
2019-03-21T20:34:15.292Z,7.47
2019-03-21T20:36:44.398Z,7.27
2019-03-21T20:39:12.296Z,6.00
2019-03-21T20:41:40.343Z,6.17
2019-03-21T20:44:15.140Z,5.47
2019-03-21T20:46:38.479Z,5.63
2019-03-21T20:49:06.624Z,5.90
2019-03-21T20:51:34.552Z,5.60
2019-03-21T20:54:02.581Z,5.90
2019-03-21T20:56:30.854Z,7.50
2019-03-21T20:58:58.764Z,8.70
2019-03-21T21:01:27.564Z,7.57
2019-03-21T21:03:55.947Z,7.47
2019-03-21T21:06:24.109Z,7.53
2019-03-21T21:08:52.684Z,9.17
2019-03-21T21:11:21.909Z,9.80
2019-03-21T21:13:50.240Z,11.43
2019-03-21T21:16:18.274Z,11.13
2019-03-21T21:18:46.311Z,9.73
2019-03-21T21:21:14.071Z,10.77
2019-03-21T21:23:42.109Z,13.77
2019-03-21T21:26:10.055Z,14.43
2019-03-21T21:28:38.109Z,15.43
2019-03-21T21:31:05.989Z,14.47
2019-03-21T21:33:34.234Z,11.07
2019-03-21T21:36:02.251Z,10.40
2019-03-21T21:38:30.214Z,9.73
2019-03-21T21:40:58.267Z,8.17
2019-03-21T21:43:26.443Z,6.63
2019-03-21T21:45:54.303Z,6.70
2019-03-21T21:48:22.038Z,7.40
2019-03-21T21:50:49.906Z,7.60
2019-03-21T21:53:17.894Z,11.13
2019-03-21T21:55:45.680Z,10.20
2019-03-21T21:58:13.559Z,8.13
2019-03-21T22:00:41.428Z,6.73
2019-03-21T22:03:09.326Z,7.20
2019-03-21T22:05:37.363Z,6.57
2019-03-21T22:08:05.789Z,5.37
2019-03-21T22:10:34.185Z,4.83
2019-03-21T22:13:02.093Z,5.40
2019-03-21T22:15:30.094Z,5.80
2019-03-21T22:17:58.253Z,6.20
2019-03-21T22:20:26.368Z,6.70
2019-03-21T22:22:54.589Z,7.77
2019-03-21T22:25:22.827Z,7.97
2019-03-21T22:27:50.894Z,6.43
2019-03-21T22:30:19.312Z,6.60
2019-03-21T22:32:47.352Z,6.03
2019-03-21T22:35:15.296Z,5.67
2019-03-21T22:37:43.355Z,5.90
2019-03-21T22:40:11.350Z,5.47
2019-03-21T22:42:40.366Z,5.70
2019-03-21T22:45:09.488Z,5.13
2019-03-21T22:47:37.333Z,5.53
2019-03-21T22:50:07.451Z,5.00
2019-03-21T22:52:35.431Z,5.40
2019-03-21T22:55:03.915Z,5.63
2019-03-21T22:57:31.793Z,6.53
2019-03-21T22:59:59.680Z,6.60
2019-03-21T23:02:27.728Z,6.77
2019-03-21T23:04:56.767Z,6.60
2019-03-21T23:07:24.854Z,6.70
2019-03-21T23:09:52.893Z,7.00
2019-03-21T23:12:20.748Z,5.70
2019-03-21T23:14:48.846Z,5.53
2019-03-21T23:17:16.973Z,5.57
2019-03-21T23:19:45.512Z,5.77
2019-03-21T23:22:13.475Z,5.40
2019-03-21T23:24:41.296Z,5.80
2019-03-21T23:27:09.237Z,5.93
2019-03-21T23:29:37.668Z,5.63
2019-03-21T23:32:06.640Z,5.20
2019-03-21T23:34:34.826Z,6.10
2019-03-21T23:37:02.771Z,5.60
2019-03-21T23:39:31.740Z,5.73
2019-03-21T23:41:59.717Z,6.67
2019-03-21T23:44:27.516Z,7.93
2019-03-21T23:46:55.526Z,6.97
2019-03-21T23:49:23.564Z,7.33
2019-03-21T23:51:51.400Z,7.10
2019-03-21T23:54:19.293Z,8.50
2019-03-21T23:56:47.155Z,6.83
2019-03-21T23:59:15.418Z,7.43
